sensor_id;sensor_type;location;lat;lon;timestamp;temperature;humidity
9980;DHT22;5030;51.532;6.766;2023-02-26T00:01:26;0.20;99.90
9980;DHT22;5030;51.532;6.766;2023-02-26T00:03:55;0.20;99.90
9980;DHT22;5030;51.532;6.766;2023-02-26T00:06:21;0.20;99.90
9980;DHT22;5030;51.532;6.766;2023-02-26T00:08:47;0.20;99.90
9980;DHT22;5030;51.532;6.766;2023-02-26T00:11:14;0.20;99.90
9980;DHT22;5030;51.532;6.766;2023-02-26T00:13:41;0.20;99.90
9980;DHT22;5030;51.532;6.766;2023-02-26T00:16:31;0.20;99.90
9980;DHT22;5030;51.532;6.766;2023-02-26T00:18:59;0.30;99.90
9980;DHT22;5030;51.532;6.766;2023-02-26T00:21:27;0.30;99.90
9980;DHT22;5030;51.532;6.766;2023-02-26T00:23:53;0.40;99.90
9980;DHT22;5030;51.532;6.766;2023-02-26T00:26:20;0.40;99.90
9980;DHT22;5030;51.532;6.766;2023-02-26T00:28:46;0.50;99.90
9980;DHT22;5030;51.532;6.766;2023-02-26T00:31:14;0.50;99.90
9980;DHT22;5030;51.532;6.766;2023-02-26T00:33:40;0.60;99.90
9980;DHT22;5030;51.532;6.766;2023-02-26T00:38:39;0.70;99.90
9980;DHT22;5030;51.532;6.766;2023-02-26T00:41:09;0.70;99.90
9980;DHT22;5030;51.532;6.766;2023-02-26T00:43:34;0.80;99.90
9980;DHT22;5030;51.532;6.766;2023-02-26T00:46:11;0.70;99.90
9980;DHT22;5030;51.532;6.766;2023-02-26T00:49:09;0.70;99.90
9980;DHT22;5030;51.532;6.766;2023-02-26T00:56:44;0.90;99.90
9980;DHT22;5030;51.532;6.766;2023-02-26T00:59:10;1.00;99.90
9980;DHT22;5030;51.532;6.766;2023-02-26T01:01:36;0.90;99.90
9980;DHT22;5030;51.532;6.766;2023-02-26T01:04:02;1.00;99.90
9980;DHT22;5030;51.532;6.766;2023-02-26T01:06:31;0.90;99.90
9980;DHT22;5030;51.532;6.766;2023-02-26T01:09:20;0.90;99.90
9980;DHT22;5030;51.532;6.766;2023-02-26T01:11:49;0.90;99.90
9980;DHT22;5030;51.532;6.766;2023-02-26T01:14:15;0.70;99.90
9980;DHT22;5030;51.532;6.766;2023-02-26T01:17:01;0.60;99.90
9980;DHT22;5030;51.532;6.766;2023-02-26T01:22:32;0.40;99.90
9980;DHT22;5030;51.532;6.766;2023-02-26T01:25:10;0.30;99.90
9980;DHT22;5030;51.532;6.766;2023-02-26T01:27:36;0.40;99.90
9980;DHT22;5030;51.532;6.766;2023-02-26T01:30:08;0.40;99.90
9980;DHT22;5030;51.532;6.766;2023-02-26T01:35:25;0.20;99.90
9980;DHT22;5030;51.532;6.766;2023-02-26T01:38:07;0.20;99.90
9980;DHT22;5030;51.532;6.766;2023-02-26T01:41:01;0.00;99.90
9980;DHT22;5030;51.532;6.766;2023-02-26T01:43:50;-0.30;99.90
9980;DHT22;5030;51.532;6.766;2023-02-26T01:49:04;-0.10;99.90
9980;DHT22;5030;51.532;6.766;2023-02-26T01:54:21;-0.40;99.90
9980;DHT22;5030;51.532;6.766;2023-02-26T01:56:49;-0.60;99.90
9980;DHT22;5030;51.532;6.766;2023-02-26T01:59:17;-0.40;99.90
9980;DHT22;5030;51.532;6.766;2023-02-26T02:01:49;-0.40;99.90
9980;DHT22;5030;51.532;6.766;2023-02-26T02:04:16;-0.40;99.90
9980;DHT22;5030;51.532;6.766;2023-02-26T02:06:42;-0.50;99.90
9980;DHT22;5030;51.532;6.766;2023-02-26T02:09:08;-0.40;99.90
9980;DHT22;5030;51.532;6.766;2023-02-26T02:11:48;-0.50;99.90
9980;DHT22;5030;51.532;6.766;2023-02-26T02:17:22;-0.60;99.90
9980;DHT22;5030;51.532;6.766;2023-02-26T02:20:22;-0.70;99.90
9980;DHT22;5030;51.532;6.766;2023-02-26T02:36:55;-0.70;99.90
9980;DHT22;5030;51.532;6.766;2023-02-26T02:39:27;-0.60;99.90
9980;DHT22;5030;51.532;6.766;2023-02-26T02:42:05;-0.70;99.90
9980;DHT22;5030;51.532;6.766;2023-02-26T02:44:35;-0.70;99.90
9980;DHT22;5030;51.532;6.766;2023-02-26T02:47:02;-0.70;99.90
9980;DHT22;5030;51.532;6.766;2023-02-26T02:50:02;-0.80;99.90
9980;DHT22;5030;51.532;6.766;2023-02-26T02:52:37;-0.90;99.90
9980;DHT22;5030;51.532;6.766;2023-02-26T02:55:14;-0.90;99.90
9980;DHT22;5030;51.532;6.766;2023-02-26T03:00:19;-1.10;99.90
9980;DHT22;5030;51.532;6.766;2023-02-26T03:05:39;-1.10;99.90
9980;DHT22;5030;51.532;6.766;2023-02-26T03:08:09;-1.20;99.90
9980;DHT22;5030;51.532;6.766;2023-02-26T03:10:35;-1.00;99.90
9980;DHT22;5030;51.532;6.766;2023-02-26T03:13:01;-1.10;99.90
9980;DHT22;5030;51.532;6.766;2023-02-26T03:15:38;-1.00;99.90
9980;DHT22;5030;51.532;6.766;2023-02-26T03:21:06;-1.00;99.90
9980;DHT22;5030;51.532;6.766;2023-02-26T03:23:42;-1.20;99.90
9980;DHT22;5030;51.532;6.766;2023-02-26T03:29:04;-1.20;99.90
9980;DHT22;5030;51.532;6.766;2023-02-26T03:32:05;-1.20;99.90
9980;DHT22;5030;51.532;6.766;2023-02-26T03:34:49;-1.10;99.90
9980;DHT22;5030;51.532;6.766;2023-02-26T03:37:29;-1.20;99.90
9980;DHT22;5030;51.532;6.766;2023-02-26T03:39:59;-1.10;99.90
9980;DHT22;5030;51.532;6.766;2023-02-26T03:42:58;-1.10;99.90
9980;DHT22;5030;51.532;6.766;2023-02-26T03:45:29;-1.10;99.90
9980;DHT22;5030;51.532;6.766;2023-02-26T03:47:57;-1.20;99.90
9980;DHT22;5030;51.532;6.766;2023-02-26T03:53:11;-1.10;99.90
9980;DHT22;5030;51.532;6.766;2023-02-26T03:55:41;-1.10;99.90
9980;DHT22;5030;51.532;6.766;2023-02-26T03:58:09;-1.20;99.90
9980;DHT22;5030;51.532;6.766;2023-02-26T04:00:37;-1.20;99.90
9980;DHT22;5030;51.532;6.766;2023-02-26T04:03:24;-1.20;99.90
9980;DHT22;5030;51.532;6.766;2023-02-26T04:05:51;-1.30;99.90
9980;DHT22;5030;51.532;6.766;2023-02-26T04:08:20;-1.40;99.90
9980;DHT22;5030;51.532;6.766;2023-02-26T04:10:55;-1.30;99.90
9980;DHT22;5030;51.532;6.766;2023-02-26T04:13:21;-1.30;99.90
9980;DHT22;5030;51.532;6.766;2023-02-26T04:15:47;-1.30;99.90
9980;DHT22;5030;51.532;6.766;2023-02-26T04:18:13;-1.40;99.90
9980;DHT22;5030;51.532;6.766;2023-02-26T04:20:39;-1.40;99.90
9980;DHT22;5030;51.532;6.766;2023-02-26T04:23:04;-1.40;99.90
9980;DHT22;5030;51.532;6.766;2023-02-26T04:25:30;-1.40;99.90
9980;DHT22;5030;51.532;6.766;2023-02-26T04:27:56;-1.30;99.90
9980;DHT22;5030;51.532;6.766;2023-02-26T04:30:22;-1.30;99.90
9980;DHT22;5030;51.532;6.766;2023-02-26T04:32:47;-1.20;99.90
9980;DHT22;5030;51.532;6.766;2023-02-26T04:35:13;-1.20;99.90
9980;DHT22;5030;51.532;6.766;2023-02-26T04:37:39;-1.20;99.90
9980;DHT22;5030;51.532;6.766;2023-02-26T04:40:05;-1.10;99.90
9980;DHT22;5030;51.532;6.766;2023-02-26T04:42:31;-1.30;99.90
9980;DHT22;5030;51.532;6.766;2023-02-26T04:44:57;-1.40;99.90
9980;DHT22;5030;51.532;6.766;2023-02-26T04:47:22;-1.40;99.90
9980;DHT22;5030;51.532;6.766;2023-02-26T04:49:48;-1.50;99.90
9980;DHT22;5030;51.532;6.766;2023-02-26T04:52:14;-1.40;99.90
9980;DHT22;5030;51.532;6.766;2023-02-26T04:54:39;-1.40;99.90
9980;DHT22;5030;51.532;6.766;2023-02-26T04:57:05;-1.50;99.90
9980;DHT22;5030;51.532;6.766;2023-02-26T04:59:31;-1.50;99.90
9980;DHT22;5030;51.532;6.766;2023-02-26T05:01:57;-1.40;99.90
9980;DHT22;5030;51.532;6.766;2023-02-26T05:04:23;-1.40;99.90
9980;DHT22;5030;51.532;6.766;2023-02-26T05:06:49;-1.40;99.90
9980;DHT22;5030;51.532;6.766;2023-02-26T05:09:15;-1.40;99.90
9980;DHT22;5030;51.532;6.766;2023-02-26T05:11:40;-1.30;99.90
9980;DHT22;5030;51.532;6.766;2023-02-26T05:14:06;-1.30;99.90
9980;DHT22;5030;51.532;6.766;2023-02-26T05:16:33;-1.50;99.90
9980;DHT22;5030;51.532;6.766;2023-02-26T05:18:58;-1.50;99.90
9980;DHT22;5030;51.532;6.766;2023-02-26T05:21:24;-1.60;99.90
9980;DHT22;5030;51.532;6.766;2023-02-26T05:23:50;-1.70;99.90
9980;DHT22;5030;51.532;6.766;2023-02-26T05:26:16;-1.70;99.90
9980;DHT22;5030;51.532;6.766;2023-02-26T05:28:41;-1.70;99.90
9980;DHT22;5030;51.532;6.766;2023-02-26T05:31:10;-1.70;99.90
9980;DHT22;5030;51.532;6.766;2023-02-26T05:33:36;-1.90;99.90
9980;DHT22;5030;51.532;6.766;2023-02-26T05:36:01;-1.80;99.90
9980;DHT22;5030;51.532;6.766;2023-02-26T05:38:27;-1.90;99.90
9980;DHT22;5030;51.532;6.766;2023-02-26T05:40:56;-1.90;99.90
9980;DHT22;5030;51.532;6.766;2023-02-26T05:43:22;-2.00;99.90
9980;DHT22;5030;51.532;6.766;2023-02-26T05:45:50;-1.80;99.90
9980;DHT22;5030;51.532;6.766;2023-02-26T05:48:15;-1.80;99.90
9980;DHT22;5030;51.532;6.766;2023-02-26T05:50:41;-1.80;99.90
9980;DHT22;5030;51.532;6.766;2023-02-26T05:53:07;-1.80;99.90
9980;DHT22;5030;51.532;6.766;2023-02-26T05:55:33;-2.00;99.90
9980;DHT22;5030;51.532;6.766;2023-02-26T05:57:59;-1.90;99.90
9980;DHT22;5030;51.532;6.766;2023-02-26T06:00:25;-1.90;99.90
9980;DHT22;5030;51.532;6.766;2023-02-26T06:02:51;-1.90;99.90
9980;DHT22;5030;51.532;6.766;2023-02-26T06:05:17;-1.90;99.90
9980;DHT22;5030;51.532;6.766;2023-02-26T06:07:43;-1.80;99.90
9980;DHT22;5030;51.532;6.766;2023-02-26T06:10:09;-1.90;99.90
9980;DHT22;5030;51.532;6.766;2023-02-26T06:12:35;-1.90;99.90
9980;DHT22;5030;51.532;6.766;2023-02-26T06:15:01;-1.90;99.90
9980;DHT22;5030;51.532;6.766;2023-02-26T06:17:27;-1.70;99.90
9980;DHT22;5030;51.532;6.766;2023-02-26T06:19:53;-1.90;99.90
9980;DHT22;5030;51.532;6.766;2023-02-26T06:22:18;-1.80;99.90
9980;DHT22;5030;51.532;6.766;2023-02-26T06:24:44;-1.80;99.90
9980;DHT22;5030;51.532;6.766;2023-02-26T06:27:10;-1.80;99.90
9980;DHT22;5030;51.532;6.766;2023-02-26T06:29:35;-1.90;99.90
9980;DHT22;5030;51.532;6.766;2023-02-26T06:32:03;-1.90;99.90
9980;DHT22;5030;51.532;6.766;2023-02-26T06:34:28;-2.10;99.90
9980;DHT22;5030;51.532;6.766;2023-02-26T06:36:54;-2.10;99.90
9980;DHT22;5030;51.532;6.766;2023-02-26T06:39:20;-2.30;99.90
9980;DHT22;5030;51.532;6.766;2023-02-26T06:41:45;-2.20;99.90
9980;DHT22;5030;51.532;6.766;2023-02-26T06:44:11;-2.10;99.90
9980;DHT22;5030;51.532;6.766;2023-02-26T06:46:37;-2.00;99.90
9980;DHT22;5030;51.532;6.766;2023-02-26T06:49:03;-2.10;99.90
9980;DHT22;5030;51.532;6.766;2023-02-26T06:51:28;-2.00;99.90
9980;DHT22;5030;51.532;6.766;2023-02-26T06:53:55;-1.90;99.90
9980;DHT22;5030;51.532;6.766;2023-02-26T06:56:21;-1.80;99.90
9980;DHT22;5030;51.532;6.766;2023-02-26T06:58:47;-1.90;99.90
9980;DHT22;5030;51.532;6.766;2023-02-26T07:01:13;-1.80;99.90
9980;DHT22;5030;51.532;6.766;2023-02-26T07:03:38;-1.80;99.90
9980;DHT22;5030;51.532;6.766;2023-02-26T07:06:05;-1.70;99.90
9980;DHT22;5030;51.532;6.766;2023-02-26T07:08:33;-1.70;99.90
9980;DHT22;5030;51.532;6.766;2023-02-26T07:10:58;-1.70;99.90
9980;DHT22;5030;51.532;6.766;2023-02-26T07:13:24;-1.60;99.90
9980;DHT22;5030;51.532;6.766;2023-02-26T07:15:50;-1.60;99.90
9980;DHT22;5030;51.532;6.766;2023-02-26T07:18:16;-1.40;99.90
9980;DHT22;5030;51.532;6.766;2023-02-26T07:20:42;-1.50;99.90
9980;DHT22;5030;51.532;6.766;2023-02-26T07:23:08;-1.50;99.90
9980;DHT22;5030;51.532;6.766;2023-02-26T07:25:33;-1.40;99.90
9980;DHT22;5030;51.532;6.766;2023-02-26T07:27:59;-1.30;99.90
9980;DHT22;5030;51.532;6.766;2023-02-26T07:30:25;-1.30;99.90
9980;DHT22;5030;51.532;6.766;2023-02-26T07:32:51;-1.20;99.90
9980;DHT22;5030;51.532;6.766;2023-02-26T07:35:17;-1.40;99.90
9980;DHT22;5030;51.532;6.766;2023-02-26T07:37:43;-1.30;99.90
9980;DHT22;5030;51.532;6.766;2023-02-26T07:40:09;-1.10;99.90
9980;DHT22;5030;51.532;6.766;2023-02-26T07:42:35;-0.90;99.90
9980;DHT22;5030;51.532;6.766;2023-02-26T07:45:01;-1.00;99.90
9980;DHT22;5030;51.532;6.766;2023-02-26T07:47:27;-1.00;99.90
9980;DHT22;5030;51.532;6.766;2023-02-26T07:49:55;-0.90;99.90
9980;DHT22;5030;51.532;6.766;2023-02-26T07:52:21;-0.90;99.90
9980;DHT22;5030;51.532;6.766;2023-02-26T07:54:46;-0.80;99.90
9980;DHT22;5030;51.532;6.766;2023-02-26T07:57:12;-0.80;99.90
9980;DHT22;5030;51.532;6.766;2023-02-26T07:59:37;-0.70;99.90
9980;DHT22;5030;51.532;6.766;2023-02-26T08:02:04;-0.70;99.90
9980;DHT22;5030;51.532;6.766;2023-02-26T08:04:30;-0.60;99.90
9980;DHT22;5030;51.532;6.766;2023-02-26T08:07:00;-0.60;99.90
9980;DHT22;5030;51.532;6.766;2023-02-26T08:09:26;-0.50;99.90
9980;DHT22;5030;51.532;6.766;2023-02-26T08:11:52;-0.40;99.90
9980;DHT22;5030;51.532;6.766;2023-02-26T08:14:17;-0.40;99.90
9980;DHT22;5030;51.532;6.766;2023-02-26T08:16:43;-0.30;99.90
9980;DHT22;5030;51.532;6.766;2023-02-26T08:19:09;-0.30;99.90
9980;DHT22;5030;51.532;6.766;2023-02-26T08:21:35;-0.30;99.90
9980;DHT22;5030;51.532;6.766;2023-02-26T08:24:01;-0.20;99.90
9980;DHT22;5030;51.532;6.766;2023-02-26T08:26:27;-0.20;99.90
9980;DHT22;5030;51.532;6.766;2023-02-26T08:28:53;-0.20;99.90
9980;DHT22;5030;51.532;6.766;2023-02-26T08:31:20;-0.10;99.90
9980;DHT22;5030;51.532;6.766;2023-02-26T08:33:46;0.00;99.90
9980;DHT22;5030;51.532;6.766;2023-02-26T08:36:12;0.00;99.90
9980;DHT22;5030;51.532;6.766;2023-02-26T08:38:39;0.10;99.90
9980;DHT22;5030;51.532;6.766;2023-02-26T08:41:04;0.20;99.90
9980;DHT22;5030;51.532;6.766;2023-02-26T08:43:30;0.20;99.90
9980;DHT22;5030;51.532;6.766;2023-02-26T08:45:56;0.30;99.90
9980;DHT22;5030;51.532;6.766;2023-02-26T08:48:23;0.40;99.90
9980;DHT22;5030;51.532;6.766;2023-02-26T08:50:49;0.50;99.90
9980;DHT22;5030;51.532;6.766;2023-02-26T08:53:15;0.60;99.90
9980;DHT22;5030;51.532;6.766;2023-02-26T08:55:41;0.70;99.90
9980;DHT22;5030;51.532;6.766;2023-02-26T08:58:09;0.80;99.90
9980;DHT22;5030;51.532;6.766;2023-02-26T09:00:35;0.90;99.90
9980;DHT22;5030;51.532;6.766;2023-02-26T09:03:01;1.00;99.90
9980;DHT22;5030;51.532;6.766;2023-02-26T09:05:26;1.00;99.90
9980;DHT22;5030;51.532;6.766;2023-02-26T09:07:52;1.10;99.90
9980;DHT22;5030;51.532;6.766;2023-02-26T09:10:18;1.30;99.90
9980;DHT22;5030;51.532;6.766;2023-02-26T09:12:43;1.40;99.90
9980;DHT22;5030;51.532;6.766;2023-02-26T09:15:10;1.40;99.90
9980;DHT22;5030;51.532;6.766;2023-02-26T09:17:37;1.50;99.50
9980;DHT22;5030;51.532;6.766;2023-02-26T09:20:03;1.60;99.60
9980;DHT22;5030;51.532;6.766;2023-02-26T09:22:29;1.70;97.30
9980;DHT22;5030;51.532;6.766;2023-02-26T09:24:55;1.80;95.40
9980;DHT22;5030;51.532;6.766;2023-02-26T09:27:21;1.80;95.10
9980;DHT22;5030;51.532;6.766;2023-02-26T09:29:47;1.80;91.90
9980;DHT22;5030;51.532;6.766;2023-02-26T09:32:12;2.00;93.70
9980;DHT22;5030;51.532;6.766;2023-02-26T09:34:38;2.10;92.80
9980;DHT22;5030;51.532;6.766;2023-02-26T09:37:06;2.10;86.60
9980;DHT22;5030;51.532;6.766;2023-02-26T09:39:33;2.20;90.20
9980;DHT22;5030;51.532;6.766;2023-02-26T09:44:38;2.10;80.40
9980;DHT22;5030;51.532;6.766;2023-02-26T09:50:20;2.40;76.50
9980;DHT22;5030;51.532;6.766;2023-02-26T09:53:08;2.60;74.00
9980;DHT22;5030;51.532;6.766;2023-02-26T09:55:40;2.60;64.90
9980;DHT22;5030;51.532;6.766;2023-02-26T09:58:18;2.70;60.90
9980;DHT22;5030;51.532;6.766;2023-02-26T10:10:32;3.30;47.60
9980;DHT22;5030;51.532;6.766;2023-02-26T10:12:34;3.30;36.50
9980;DHT22;5030;51.532;6.766;2023-02-26T10:17:48;3.40;15.90
9980;DHT22;5030;51.532;6.766;2023-02-26T10:23:37;3.00;24.60
9980;DHT22;5030;51.532;6.766;2023-02-26T10:36:28;3.20;12.80
9980;DHT22;5030;51.532;6.766;2023-02-26T10:39:02;3.00;7.30
9980;DHT22;5030;51.532;6.766;2023-02-26T10:41:33;3.20;10.50
9980;DHT22;5030;51.532;6.766;2023-02-26T10:46:51;3.40;7.40
9980;DHT22;5030;51.532;6.766;2023-02-26T10:49:45;3.30;8.20
9980;DHT22;5030;51.532;6.766;2023-02-26T10:52:22;3.30;9.30
9980;DHT22;5030;51.532;6.766;2023-02-26T10:58:09;3.20;1.00
9980;DHT22;5030;51.532;6.766;2023-02-26T11:00:32;3.10;1.00
9980;DHT22;5030;51.532;6.766;2023-02-26T11:02:59;2.90;1.00
9980;DHT22;5030;51.532;6.766;2023-02-26T11:05:29;3.00;1.70
9980;DHT22;5030;51.532;6.766;2023-02-26T11:08:14;3.10;1.00
9980;DHT22;5030;51.532;6.766;2023-02-26T11:10:52;3.10;1.00
9980;DHT22;5030;51.532;6.766;2023-02-26T11:13:21;3.10;1.00
9980;DHT22;5030;51.532;6.766;2023-02-26T11:15:49;3.10;1.00
9980;DHT22;5030;51.532;6.766;2023-02-26T11:21:18;3.40;1.00
9980;DHT22;5030;51.532;6.766;2023-02-26T11:23:47;3.50;1.00
9980;DHT22;5030;51.532;6.766;2023-02-26T11:26:17;3.50;1.00
9980;DHT22;5030;51.532;6.766;2023-02-26T11:28:49;3.50;1.00
9980;DHT22;5030;51.532;6.766;2023-02-26T11:31:18;3.50;1.00
9980;DHT22;5030;51.532;6.766;2023-02-26T11:33:48;3.60;1.00
9980;DHT22;5030;51.532;6.766;2023-02-26T11:36:19;3.80;1.00
9980;DHT22;5030;51.532;6.766;2023-02-26T11:38:50;4.10;1.00
9980;DHT22;5030;51.532;6.766;2023-02-26T11:41:17;3.80;1.00
9980;DHT22;5030;51.532;6.766;2023-02-26T11:43:48;3.80;1.00
9980;DHT22;5030;51.532;6.766;2023-02-26T11:46:14;3.80;1.00
9980;DHT22;5030;51.532;6.766;2023-02-26T11:48:46;3.80;1.00
9980;DHT22;5030;51.532;6.766;2023-02-26T11:51:23;3.90;1.00
9980;DHT22;5030;51.532;6.766;2023-02-26T11:53:58;3.80;1.00
9980;DHT22;5030;51.532;6.766;2023-02-26T11:56:42;3.80;1.00
9980;DHT22;5030;51.532;6.766;2023-02-26T11:59:17;3.90;1.00
9980;DHT22;5030;51.532;6.766;2023-02-26T12:01:43;3.90;1.00
9980;DHT22;5030;51.532;6.766;2023-02-26T12:04:12;4.00;1.00
9980;DHT22;5030;51.532;6.766;2023-02-26T12:06:38;4.10;1.00
9980;DHT22;5030;51.532;6.766;2023-02-26T12:09:10;4.20;1.00
9980;DHT22;5030;51.532;6.766;2023-02-26T12:20:11;4.50;1.00
9980;DHT22;5030;51.532;6.766;2023-02-26T12:33:55;4.20;1.00
9980;DHT22;5030;51.532;6.766;2023-02-26T12:36:43;4.10;1.00
9980;DHT22;5030;51.532;6.766;2023-02-26T12:45:10;4.20;1.00
9980;DHT22;5030;51.532;6.766;2023-02-26T12:50:39;4.20;1.00
9980;DHT22;5030;51.532;6.766;2023-02-26T12:53:18;4.30;1.00
9980;DHT22;5030;51.532;6.766;2023-02-26T13:07:15;5.20;1.00
9980;DHT22;5030;51.532;6.766;2023-02-26T13:12:53;6.00;1.00
9980;DHT22;5030;51.532;6.766;2023-02-26T13:21:36;5.70;1.00
9980;DHT22;5030;51.532;6.766;2023-02-26T13:27:01;6.50;1.00
9980;DHT22;5030;51.532;6.766;2023-02-26T13:29:36;6.90;1.00
9980;DHT22;5030;51.532;6.766;2023-02-26T13:32:11;6.90;1.00
9980;DHT22;5030;51.532;6.766;2023-02-26T13:34:57;6.80;1.00
9980;DHT22;5030;51.532;6.766;2023-02-26T13:37:37;7.10;1.00
9980;DHT22;5030;51.532;6.766;2023-02-26T13:51:26;5.50;1.00
9980;DHT22;5030;51.532;6.766;2023-02-26T13:54:00;5.60;1.00
9980;DHT22;5030;51.532;6.766;2023-02-26T13:59:16;5.90;1.00
9980;DHT22;5030;51.532;6.766;2023-02-26T14:01:52;6.30;1.00
9980;DHT22;5030;51.532;6.766;2023-02-26T14:07:13;6.00;1.00
9980;DHT22;5030;51.532;6.766;2023-02-26T14:10:02;5.90;1.00
9980;DHT22;5030;51.532;6.766;2023-02-26T14:12:41;6.50;1.00
9980;DHT22;5030;51.532;6.766;2023-02-26T14:17:47;7.10;1.00
9980;DHT22;5030;51.532;6.766;2023-02-26T14:20:22;7.30;1.00
9980;DHT22;5030;51.532;6.766;2023-02-26T14:25:40;7.40;1.00
9980;DHT22;5030;51.532;6.766;2023-02-26T14:34:27;7.80;1.00
9980;DHT22;5030;51.532;6.766;2023-02-26T14:36:54;8.20;1.00
9980;DHT22;5030;51.532;6.766;2023-02-26T14:39:40;8.20;1.00
9980;DHT22;5030;51.532;6.766;2023-02-26T14:44:45;8.10;1.00
9980;DHT22;5030;51.532;6.766;2023-02-26T14:47:12;7.80;1.00
9980;DHT22;5030;51.532;6.766;2023-02-26T14:49:44;7.90;1.00
9980;DHT22;5030;51.532;6.766;2023-02-26T14:57:56;8.00;1.00
9980;DHT22;5030;51.532;6.766;2023-02-26T15:06:04;8.30;1.00
9980;DHT22;5030;51.532;6.766;2023-02-26T15:08:45;8.10;1.00
9980;DHT22;5030;51.532;6.766;2023-02-26T15:24:09;7.80;1.00
9980;DHT22;5030;51.532;6.766;2023-02-26T15:26:54;7.80;1.00
9980;DHT22;5030;51.532;6.766;2023-02-26T15:29:27;7.60;1.00
9980;DHT22;5030;51.532;6.766;2023-02-26T15:32:26;7.70;1.00
9980;DHT22;5030;51.532;6.766;2023-02-26T15:35:05;7.10;1.00
9980;DHT22;5030;51.532;6.766;2023-02-26T15:37:31;6.50;1.00
9980;DHT22;5030;51.532;6.766;2023-02-26T15:39:59;6.70;1.00
9980;DHT22;5030;51.532;6.766;2023-02-26T15:42:33;6.70;1.00
9980;DHT22;5030;51.532;6.766;2023-02-26T15:45:16;6.90;1.00
9980;DHT22;5030;51.532;6.766;2023-02-26T15:47:46;6.80;1.00
9980;DHT22;5030;51.532;6.766;2023-02-26T15:50:15;6.30;1.00
9980;DHT22;5030;51.532;6.766;2023-02-26T15:52:42;5.90;1.00
9980;DHT22;5030;51.532;6.766;2023-02-26T15:55:12;5.50;1.00
9980;DHT22;5030;51.532;6.766;2023-02-26T15:57:39;5.40;1.00
9980;DHT22;5030;51.532;6.766;2023-02-26T16:00:09;5.30;1.00
9980;DHT22;5030;51.532;6.766;2023-02-26T16:02:37;5.20;1.00
9980;DHT22;5030;51.532;6.766;2023-02-26T16:05:03;5.00;1.00
9980;DHT22;5030;51.532;6.766;2023-02-26T16:07:29;4.90;1.00
9980;DHT22;5030;51.532;6.766;2023-02-26T16:09:56;4.90;1.00
9980;DHT22;5030;51.532;6.766;2023-02-26T16:12:42;4.90;1.00
9980;DHT22;5030;51.532;6.766;2023-02-26T16:15:18;4.80;1.00
9980;DHT22;5030;51.532;6.766;2023-02-26T16:17:48;4.60;1.00
9980;DHT22;5030;51.532;6.766;2023-02-26T16:20:19;4.60;1.00
9980;DHT22;5030;51.532;6.766;2023-02-26T16:23:06;4.50;1.00
9980;DHT22;5030;51.532;6.766;2023-02-26T16:25:36;4.40;1.00
9980;DHT22;5030;51.532;6.766;2023-02-26T16:28:06;4.30;1.00
9980;DHT22;5030;51.532;6.766;2023-02-26T16:30:38;4.20;1.00
9980;DHT22;5030;51.532;6.766;2023-02-26T16:33:11;4.10;1.00
9980;DHT22;5030;51.532;6.766;2023-02-26T16:35:45;4.10;1.00
9980;DHT22;5030;51.532;6.766;2023-02-26T16:38:18;3.90;1.00
9980;DHT22;5030;51.532;6.766;2023-02-26T16:40:45;3.90;1.00
9980;DHT22;5030;51.532;6.766;2023-02-26T16:45:53;3.70;1.00
9980;DHT22;5030;51.532;6.766;2023-02-26T16:48:27;3.70;1.00
9980;DHT22;5030;51.532;6.766;2023-02-26T16:51:11;3.60;1.00
9980;DHT22;5030;51.532;6.766;2023-02-26T16:53:43;3.40;1.00
9980;DHT22;5030;51.532;6.766;2023-02-26T16:56:16;3.40;1.00
9980;DHT22;5030;51.532;6.766;2023-02-26T16:58:49;3.20;1.00
9980;DHT22;5030;51.532;6.766;2023-02-26T17:01:20;3.20;1.00
9980;DHT22;5030;51.532;6.766;2023-02-26T17:03:49;3.10;1.00
9980;DHT22;5030;51.532;6.766;2023-02-26T17:06:21;2.90;1.00
9980;DHT22;5030;51.532;6.766;2023-02-26T17:13:45;2.70;1.00
9980;DHT22;5030;51.532;6.766;2023-02-26T17:16:21;2.60;1.00
9980;DHT22;5030;51.532;6.766;2023-02-26T17:18:47;2.40;1.00
9980;DHT22;5030;51.532;6.766;2023-02-26T17:21:13;2.30;1.00
9980;DHT22;5030;51.532;6.766;2023-02-26T17:23:39;2.00;1.00
9980;DHT22;5030;51.532;6.766;2023-02-26T17:26:05;1.90;1.00
9980;DHT22;5030;51.532;6.766;2023-02-26T17:28:36;1.80;12.80
9980;DHT22;5030;51.532;6.766;2023-02-26T17:31:05;1.60;17.50
9980;DHT22;5030;51.532;6.766;2023-02-26T17:33:32;1.40;26.60
9980;DHT22;5030;51.532;6.766;2023-02-26T17:36:00;1.30;33.90
9980;DHT22;5030;51.532;6.766;2023-02-26T17:38:26;1.20;36.50
9980;DHT22;5030;51.532;6.766;2023-02-26T17:40:52;1.10;41.90
9980;DHT22;5030;51.532;6.766;2023-02-26T17:43:21;1.00;46.80
9980;DHT22;5030;51.532;6.766;2023-02-26T17:45:48;0.90;54.70
9980;DHT22;5030;51.532;6.766;2023-02-26T17:48:14;0.80;61.90
9980;DHT22;5030;51.532;6.766;2023-02-26T17:50:47;0.60;65.40
9980;DHT22;5030;51.532;6.766;2023-02-26T17:53:16;0.50;69.60
9980;DHT22;5030;51.532;6.766;2023-02-26T17:55:42;0.50;81.30
9980;DHT22;5030;51.532;6.766;2023-02-26T18:00:48;0.50;90.00
9980;DHT22;5030;51.532;6.766;2023-02-26T18:03:20;0.40;88.40
9980;DHT22;5030;51.532;6.766;2023-02-26T18:05:48;0.30;90.50
9980;DHT22;5030;51.532;6.766;2023-02-26T18:08:24;0.30;92.40
9980;DHT22;5030;51.532;6.766;2023-02-26T18:10:51;0.30;95.00
9980;DHT22;5030;51.532;6.766;2023-02-26T18:13:19;0.20;96.80
9980;DHT22;5030;51.532;6.766;2023-02-26T18:15:47;0.10;97.70
9980;DHT22;5030;51.532;6.766;2023-02-26T18:18:15;0.00;98.00
9980;DHT22;5030;51.532;6.766;2023-02-26T18:20:42;0.20;99.90
9980;DHT22;5030;51.532;6.766;2023-02-26T18:23:09;0.10;99.90
9980;DHT22;5030;51.532;6.766;2023-02-26T18:25:39;0.20;99.90
9980;DHT22;5030;51.532;6.766;2023-02-26T18:28:06;0.20;99.90
9980;DHT22;5030;51.532;6.766;2023-02-26T18:30:36;0.20;99.90
9980;DHT22;5030;51.532;6.766;2023-02-26T18:33:08;0.30;99.90
9980;DHT22;5030;51.532;6.766;2023-02-26T18:35:36;0.50;99.90
9980;DHT22;5030;51.532;6.766;2023-02-26T18:38:02;0.60;99.60
9980;DHT22;5030;51.532;6.766;2023-02-26T18:40:28;0.60;97.90
9980;DHT22;5030;51.532;6.766;2023-02-26T18:42:54;0.70;98.40
9980;DHT22;5030;51.532;6.766;2023-02-26T18:45:21;0.80;98.20
9980;DHT22;5030;51.532;6.766;2023-02-26T18:47:47;0.90;96.80
9980;DHT22;5030;51.532;6.766;2023-02-26T18:50:15;1.00;95.40
9980;DHT22;5030;51.532;6.766;2023-02-26T18:52:46;1.00;93.90
9980;DHT22;5030;51.532;6.766;2023-02-26T18:55:13;1.10;92.60
9980;DHT22;5030;51.532;6.766;2023-02-26T18:57:40;1.00;93.40
9980;DHT22;5030;51.532;6.766;2023-02-26T19:00:10;1.10;92.20
9980;DHT22;5030;51.532;6.766;2023-02-26T19:02:39;1.00;93.60
9980;DHT22;5030;51.532;6.766;2023-02-26T19:05:07;1.00;94.00
9980;DHT22;5030;51.532;6.766;2023-02-26T19:07:38;1.00;95.70
9980;DHT22;5030;51.532;6.766;2023-02-26T19:10:05;1.00;94.50
9980;DHT22;5030;51.532;6.766;2023-02-26T19:12:34;1.00;95.60
9980;DHT22;5030;51.532;6.766;2023-02-26T19:15:02;1.00;94.80
9980;DHT22;5030;51.532;6.766;2023-02-26T19:17:29;1.10;94.20
9980;DHT22;5030;51.532;6.766;2023-02-26T19:19:58;1.20;93.70
9980;DHT22;5030;51.532;6.766;2023-02-26T19:22:26;1.10;93.80
9980;DHT22;5030;51.532;6.766;2023-02-26T19:24:53;1.20;95.00
9980;DHT22;5030;51.532;6.766;2023-02-26T19:27:20;1.20;94.20
9980;DHT22;5030;51.532;6.766;2023-02-26T19:29:45;1.30;94.60
9980;DHT22;5030;51.532;6.766;2023-02-26T19:32:11;1.20;96.00
9980;DHT22;5030;51.532;6.766;2023-02-26T19:34:37;1.30;96.40
9980;DHT22;5030;51.532;6.766;2023-02-26T19:37:03;1.30;96.20
9980;DHT22;5030;51.532;6.766;2023-02-26T19:39:29;1.30;96.20
9980;DHT22;5030;51.532;6.766;2023-02-26T19:41:56;1.30;95.70
9980;DHT22;5030;51.532;6.766;2023-02-26T19:44:23;1.30;96.30
9980;DHT22;5030;51.532;6.766;2023-02-26T19:46:49;1.20;96.90
9980;DHT22;5030;51.532;6.766;2023-02-26T19:49:16;1.30;97.30
9980;DHT22;5030;51.532;6.766;2023-02-26T19:51:42;1.30;96.30
9980;DHT22;5030;51.532;6.766;2023-02-26T19:54:08;1.40;95.70
9980;DHT22;5030;51.532;6.766;2023-02-26T19:56:34;1.60;96.20
9980;DHT22;5030;51.532;6.766;2023-02-26T19:59:00;1.60;94.20
9980;DHT22;5030;51.532;6.766;2023-02-26T20:01:27;1.70;93.40